Time;durP1;ratioP1;P1;durP2;ratioP2;P2;SDS_P1;SDS_P2;PMS_P1;PMS_P2;Temp;Humidity;BMP_temperature;BMP_pressure;BME280_temperature;BME280_humidity;BME280_pressure;Samples;Min_cycle;Max_cycle;Signal;HPM_P1;HPM_P2
2023/02/15 00:02:26;;;;;;;4.35;4.15;;;1.70;99.90;;;;;;6065247;23;20446;-75
2023/02/15 00:04:53;;;;;;;4.70;4.40;;;1.70;99.90;;;;;;6092526;23;20377;-75
2023/02/15 00:07:20;;;;;;;4.97;4.70;;;1.70;99.90;;;;;;6066562;23;20368;-75
2023/02/15 00:09:47;;;;;;;5.80;5.40;;;1.70;99.90;;;;;;6092252;23;20493;-75
2023/02/15 00:12:15;;;;;;;5.25;4.95;;;1.60;99.90;;;;;;6066189;23;20392;-75
2023/02/15 00:14:42;;;;;;;5.40;5.10;;;1.60;99.90;;;;;;6067305;23;20909;-75
2023/02/15 00:17:09;;;;;;;5.60;5.20;;;1.60;99.90;;;;;;6066514;23;20409;-75
2023/02/15 00:19:36;;;;;;;5.65;5.25;;;1.60;99.90;;;;;;6066938;23;20472;-77
2023/02/15 00:22:03;;;;;;;4.38;4.18;;;1.60;99.90;;;;;;6066589;23;20432;-76
2023/02/15 00:24:30;;;;;;;4.57;4.28;;;1.60;99.90;;;;;;6092597;23;20417;-76
2023/02/15 00:26:57;;;;;;;4.18;3.97;;;1.60;99.90;;;;;;6067305;23;20703;-75
2023/02/15 00:29:24;;;;;;;4.25;4.05;;;1.50;99.90;;;;;;6091382;23;20377;-76
2023/02/15 00:31:52;;;;;;;4.60;4.28;;;1.40;99.90;;;;;;6092309;23;20385;-76
2023/02/15 00:34:25;;;;;;;5.05;4.75;;;1.20;99.90;;;;;;6065717;23;20400;-75
2023/02/15 00:36:52;;;;;;;4.88;4.57;;;1.20;99.90;;;;;;6043438;23;20381;-75
2023/02/15 00:39:20;;;;;;;4.57;4.37;;;1.20;99.90;;;;;;6091422;23;20485;-75
2023/02/15 00:41:47;;;;;;;5.05;4.70;;;1.30;99.90;;;;;;6066863;23;20392;-75
2023/02/15 00:44:14;;;;;;;5.53;5.22;;;1.20;99.90;;;;;;6067578;23;20742;-76
2023/02/15 00:46:42;;;;;;;5.38;5.07;;;1.10;99.90;;;;;;6069474;23;20381;-76
2023/02/15 00:49:09;;;;;;;5.10;4.70;;;1.20;99.90;;;;;;6068072;23;20381;-75
2023/02/15 00:51:36;;;;;;;5.15;4.85;;;1.10;99.90;;;;;;6094658;23;20374;-76
2023/02/15 00:54:03;;;;;;;4.95;4.65;;;1.10;99.90;;;;;;6068244;23;20714;-75
2023/02/15 00:56:30;;;;;;;5.10;4.80;;;1.10;99.90;;;;;;6069583;23;20453;-76
2023/02/15 00:58:57;;;;;;;5.28;4.97;;;1.20;99.90;;;;;;6069339;23;20691;-75
2023/02/15 01:01:25;;;;;;;4.87;4.57;;;1.10;99.90;;;;;;6093149;23;20425;-75
2023/02/15 01:03:52;;;;;;;4.35;4.13;;;1.10;99.90;;;;;;6093880;23;20459;-75
2023/02/15 01:06:19;;;;;;;4.15;3.95;;;1.10;99.90;;;;;;6067831;23;20384;-74
2023/02/15 01:08:47;;;;;;;4.23;4.03;;;1.10;99.90;;;;;;6068622;23;20483;-75
2023/02/15 01:11:21;;;;;;;4.30;4.10;;;1.10;99.90;;;;;;6093632;23;20750;-75
2023/02/15 01:13:51;;;;;;;4.45;4.18;;;1.10;99.90;;;;;;6093872;23;20381;-75
2023/02/15 01:16:18;;;;;;;4.53;4.32;;;1.10;99.90;;;;;;6093039;23;20369;-76
2023/02/15 01:18:46;;;;;;;4.15;3.95;;;1.10;99.90;;;;;;6066471;23;20468;-76
2023/02/15 01:21:21;;;;;;;4.45;4.15;;;1.10;99.90;;;;;;6045106;23;20928;-76
2023/02/15 01:23:49;;;;;;;4.40;4.20;;;1.10;99.90;;;;;;6068300;23;20436;-75
2023/02/15 01:26:17;;;;;;;4.57;4.28;;;1.00;99.90;;;;;;6068525;23;20803;-77
2023/02/15 01:28:45;;;;;;;4.78;4.47;;;1.00;99.90;;;;;;6091651;23;20442;-75
2023/02/15 01:31:17;;;;;;;4.32;4.13;;;0.90;99.90;;;;;;6068741;23;20401;-75
2023/02/15 01:33:45;;;;;;;4.33;4.13;;;1.00;99.90;;;;;;6092443;23;20388;-75
2023/02/15 01:36:13;;;;;;;4.20;4.00;;;0.90;99.90;;;;;;6067918;23;20385;-75
2023/02/15 01:38:40;;;;;;;5.00;4.65;;;0.90;99.90;;;;;;6069010;23;20382;-76
2023/02/15 01:41:26;;;;;;;4.97;4.68;;;0.80;99.90;;;;;;6092894;23;20436;-76
2023/02/15 01:43:56;;;;;;;4.03;3.72;;;0.90;99.90;;;;;;6067403;23;20385;-75
2023/02/15 01:46:49;;;;;;;4.50;4.20;;;0.80;99.90;;;;;;6044258;23;20409;-74
2023/02/15 01:49:20;;;;;;;4.00;3.80;;;0.90;99.90;;;;;;6067865;23;20699;-75
2023/02/15 01:51:51;;;;;;;4.65;4.45;;;0.80;99.90;;;;;;6068705;23;20410;-76
2023/02/15 01:54:29;;;;;;;4.20;4.00;;;0.80;99.90;;;;;;6092212;23;20384;-75
2023/02/15 01:57:01;;;;;;;4.20;3.90;;;0.80;99.90;;;;;;6066910;23;20449;-75
2023/02/15 01:59:29;;;;;;;4.00;3.80;;;0.70;99.90;;;;;;6093224;23;20714;-75
2023/02/15 02:01:59;;;;;;;4.07;3.88;;;0.70;99.90;;;;;;6066927;23;20412;-75
2023/02/15 02:07:26;;;;;;;4.30;4.10;;;0.60;99.90;;;;;;6131366;23;20384;-77
2023/02/15 02:09:53;;;;;;;4.15;3.95;;;0.60;99.90;;;;;;6121389;23;20371;-77
2023/02/15 02:12:23;;;;;;;4.30;4.07;;;0.70;99.90;;;;;;6122954;23;20352;-76
2023/02/15 02:14:52;;;;;;;4.40;4.20;;;0.80;99.90;;;;;;6120953;23;20380;-77
2023/02/15 02:17:57;;;;;;;4.30;4.10;;;0.70;99.90;;;;;;6147055;23;20356;-78
2023/02/15 02:20:45;;;;;;;4.43;4.13;;;0.80;99.90;;;;;;6145189;23;20380;-77
2023/02/15 02:23:18;;;;;;;4.70;4.40;;;0.80;99.90;;;;;;6120186;23;20375;-76
2023/02/15 02:26:12;;;;;;;4.53;4.22;;;0.70;99.90;;;;;;6121672;23;20376;-77
2023/02/15 02:28:42;;;;;;;4.05;3.85;;;0.60;99.90;;;;;;6121920;23;20376;-76
2023/02/15 02:31:12;;;;;;;4.13;3.85;;;0.70;99.90;;;;;;6123198;23;20364;-77
2023/02/15 02:34:01;;;;;;;3.83;3.63;;;0.50;99.90;;;;;;6148494;23;20352;-77
2023/02/15 02:36:44;;;;;;;4.45;4.15;;;0.40;99.90;;;;;;6148322;23;20412;-77
2023/02/15 02:39:46;;;;;;;3.92;3.72;;;0.30;99.90;;;;;;6148334;23;20380;-77
2023/02/15 02:42:19;;;;;;;4.63;4.32;;;0.20;99.90;;;;;;6140084;23;20383;-76
2023/02/15 02:45:35;;;;;;;5.35;5.05;;;0.20;99.90;;;;;;6148769;23;20388;-77
2023/02/15 02:48:08;;;;;;;5.20;4.90;;;0.20;99.90;;;;;;6098135;23;20360;-77
2023/02/15 02:50:34;;;;;;;7.20;6.70;;;0.20;99.90;;;;;;6149023;23;20387;-77
2023/02/15 02:53:01;;;;;;;6.78;6.28;;;0.30;99.90;;;;;;6147996;23;20376;-76
2023/02/15 02:55:40;;;;;;;6.70;6.30;;;0.40;99.90;;;;;;6123114;23;20372;-76
2023/02/15 02:58:39;;;;;;;5.35;5.05;;;0.40;99.90;;;;;;6120993;23;20372;-77
2023/02/15 03:01:24;;;;;;;4.47;4.27;;;0.40;99.90;;;;;;6120677;23;20836;-76
2023/02/15 03:03:56;;;;;;;5.22;4.93;;;0.50;99.90;;;;;;6108357;23;20404;-76
2023/02/15 03:06:35;;;;;;;4.55;4.35;;;0.50;99.90;;;;;;6092529;23;20373;-76
2023/02/15 03:09:41;;;;;;;4.72;4.47;;;0.50;99.90;;;;;;6091874;23;20378;-76
2023/02/15 03:12:17;;;;;;;4.32;4.07;;;0.40;99.90;;;;;;6090431;23;20960;-76
2023/02/15 03:14:48;;;;;;;5.07;4.35;;;0.20;99.90;;;;;;6116020;23;20377;-76
2023/02/15 03:17:17;;;;;;;4.67;4.37;;;0.30;99.90;;;;;;6093082;23;20369;-77
2023/02/15 03:19:46;;;;;;;4.13;3.92;;;0.20;99.90;;;;;;6092556;23;20369;-76
2023/02/15 03:22:33;;;;;;;5.07;4.78;;;0.20;99.90;;;;;;6090674;23;20342;-76
2023/02/15 03:25:09;;;;;;;4.13;3.90;;;0.10;99.90;;;;;;6091393;23;20361;-76
2023/02/15 03:27:43;;;;;;;4.28;4.07;;;0.00;99.90;;;;;;6119328;23;20722;-76
2023/02/15 03:30:13;;;;;;;4.57;4.32;;;-0.10;99.90;;;;;;6117131;23;20378;-77
2023/02/15 03:32:42;;;;;;;4.10;3.90;;;0.00;99.90;;;;;;6118723;23;20381;-77
2023/02/15 03:35:10;;;;;;;4.40;4.20;;;0.00;99.90;;;;;;6091459;23;20365;-77
2023/02/15 03:37:43;;;;;;;4.53;4.22;;;0.00;99.90;;;;;;6087211;23;20384;-76
2023/02/15 03:43:23;;;;;;;4.57;4.30;;;0.10;99.90;;;;;;6091708;23;20378;-76
2023/02/15 03:45:56;;;;;;;4.10;3.90;;;0.10;99.90;;;;;;6068165;23;20382;-76
2023/02/15 03:48:35;;;;;;;5.18;4.88;;;0.00;99.90;;;;;;6092228;23;20454;-76
2023/02/15 03:53:57;;;;;;;5.47;5.18;;;-0.10;99.90;;;;;;6092711;23;20405;-76
2023/02/15 03:56:24;;;;;;;5.82;5.43;;;0.00;99.90;;;;;;6067529;23;20409;-76
2023/02/15 04:02:02;;;;;;;4.60;4.40;;;0.10;99.90;;;;;;6115688;23;20365;-77
2023/02/15 04:04:36;;;;;;;4.45;4.25;;;0.10;99.90;;;;;;6090143;23;20377;-76
2023/02/15 04:07:06;;;;;;;4.88;4.57;;;0.00;99.90;;;;;;6090397;23;20691;-77
2023/02/15 04:12:19;;;;;;;4.72;4.50;;;-0.10;99.90;;;;;;6090485;23;20379;-78
2023/02/15 04:17:31;;;;;;;4.15;3.95;;;-0.10;99.90;;;;;;6116501;23;20397;-77
2023/02/15 04:25:29;;;;;;;4.20;4.00;;;-0.10;99.90;;;;;;6117167;23;20377;-76
2023/02/15 04:27:56;;;;;;;4.22;4.03;;;-0.20;99.90;;;;;;6092639;23;20385;-77
2023/02/15 04:30:25;;;;;;;4.40;4.20;;;-0.30;99.90;;;;;;6091819;23;20760;-77
2023/02/15 04:32:53;;;;;;;4.30;4.10;;;-0.30;99.90;;;;;;6092254;23;20470;-76
2023/02/15 04:35:20;;;;;;;4.10;3.80;;;-0.40;99.90;;;;;;6118586;23;20762;-76
2023/02/15 04:37:47;;;;;;;5.63;5.32;;;-0.40;99.90;;;;;;6117417;23;20372;-77
2023/02/15 04:40:15;;;;;;;5.78;5.35;;;-0.30;99.90;;;;;;6091214;23;20421;-77
2023/02/15 04:42:48;;;;;;;5.63;5.22;;;-0.30;99.90;;;;;;6116102;23;20357;-77
2023/02/15 04:45:16;;;;;;;5.60;5.30;;;-0.20;99.90;;;;;;6091965;23;20362;-77
2023/02/15 04:47:43;;;;;;;6.60;6.20;;;-0.20;99.90;;;;;;6115943;23;20374;-76
2023/02/15 04:50:11;;;;;;;5.30;5.00;;;-0.10;99.90;;;;;;6092097;23;20433;-76
2023/02/15 04:52:38;;;;;;;4.25;4.05;;;-0.20;99.90;;;;;;6091991;23;20406;-76
2023/02/15 04:55:05;;;;;;;3.80;3.60;;;-0.20;99.90;;;;;;6092304;23;20444;-76
2023/02/15 04:57:32;;;;;;;4.30;4.00;;;-0.40;99.90;;;;;;6117213;23;20734;-76
2023/02/15 04:59:59;;;;;;;3.88;3.67;;;-0.50;99.90;;;;;;6118451;23;20358;-77
2023/02/15 05:02:26;;;;;;;4.50;4.20;;;-0.50;99.90;;;;;;6091188;23;20369;-77
2023/02/15 05:04:53;;;;;;;4.60;4.40;;;-0.70;99.90;;;;;;6092227;23;20362;-77
2023/02/15 05:07:20;;;;;;;4.47;4.27;;;-0.60;99.90;;;;;;6117743;23;20392;-76
2023/02/15 05:09:47;;;;;;;4.75;4.45;;;-0.50;99.90;;;;;;6091265;23;20370;-77
2023/02/15 05:12:14;;;;;;;4.65;4.40;;;-0.30;99.90;;;;;;6118074;23;20402;-77
2023/02/15 05:14:41;;;;;;;4.38;4.18;;;-0.30;99.90;;;;;;6117368;23;20362;-76
2023/02/15 05:17:08;;;;;;;4.27;4.07;;;-0.20;99.90;;;;;;6091292;23;20412;-76
2023/02/15 05:19:35;;;;;;;3.88;3.67;;;-0.20;99.90;;;;;;6090492;23;20410;-77
2023/02/15 05:22:02;;;;;;;4.38;4.07;;;-0.20;99.90;;;;;;6091103;23;20373;-76
2023/02/15 05:30:00;;;;;;;3.97;3.77;;;-0.30;99.90;;;;;;6116799;23;20427;-77
2023/02/15 05:32:27;;;;;;;3.97;3.78;;;-0.30;99.90;;;;;;6092758;23;20901;-76
2023/02/15 05:34:54;;;;;;;4.22;4.03;;;-0.40;99.90;;;;;;6090630;23;20377;-77
2023/02/15 05:37:21;;;;;;;4.07;3.87;;;-0.60;99.90;;;;;;6093725;23;20504;-77
2023/02/15 05:39:48;;;;;;;3.97;3.67;;;-0.60;99.90;;;;;;6116533;23;20422;-76
2023/02/15 05:42:15;;;;;;;4.93;4.63;;;-0.50;99.90;;;;;;6092690;23;20687;-76
2023/02/15 05:44:42;;;;;;;4.97;4.68;;;-0.50;99.90;;;;;;6117339;23;20382;-77
2023/02/15 05:47:09;;;;;;;4.10;3.90;;;-0.40;99.90;;;;;;6094301;23;20377;-77
2023/02/15 05:49:36;;;;;;;4.43;4.13;;;-0.20;99.90;;;;;;6094497;23;20378;-77
2023/02/15 05:52:03;;;;;;;3.83;3.63;;;-0.10;99.90;;;;;;6092202;23;20384;-77
2023/02/15 05:54:30;;;;;;;4.35;4.13;;;0.00;99.90;;;;;;6092735;23;20465;-77
2023/02/15 05:56:57;;;;;;;3.97;3.78;;;0.00;99.90;;;;;;6090961;23;20385;-77
2023/02/15 05:59:24;;;;;;;3.70;3.50;;;0.00;99.90;;;;;;6093386;23;20429;-77
2023/02/15 06:01:51;;;;;;;3.90;3.70;;;-0.20;99.90;;;;;;6116662;23;20421;-76
2023/02/15 06:04:18;;;;;;;3.88;3.67;;;-0.50;99.90;;;;;;6118234;23;20378;-77
2023/02/15 06:06:46;;;;;;;4.10;3.90;;;-0.50;99.90;;;;;;6091348;23;20382;-77
2023/02/15 06:09:13;;;;;;;4.07;3.88;;;-0.70;99.90;;;;;;6093297;23;20405;-77
2023/02/15 06:11:40;;;;;;;4.22;4.03;;;-0.80;99.90;;;;;;6092412;23;20368;-77
2023/02/15 06:14:07;;;;;;;4.07;3.88;;;-0.80;99.90;;;;;;6090067;23;20405;-76
2023/02/15 06:16:34;;;;;;;3.85;3.65;;;-0.80;99.90;;;;;;6091492;23;20384;-76
2023/02/15 06:19:01;;;;;;;3.85;3.65;;;-0.80;99.90;;;;;;6116852;23;20361;-77
2023/02/15 06:21:30;;;;;;;4.43;4.22;;;-0.70;99.90;;;;;;6092792;23;20372;-77
2023/02/15 06:23:57;;;;;;;4.57;4.28;;;-0.70;99.90;;;;;;6092616;23;20385;-77
2023/02/15 06:26:24;;;;;;;4.60;4.28;;;-0.70;99.90;;;;;;6093305;23;20374;-77
2023/02/15 06:28:51;;;;;;;4.65;4.35;;;-0.60;99.90;;;;;;6090926;23;20382;-77
2023/02/15 06:31:18;;;;;;;3.95;3.75;;;-0.50;99.90;;;;;;6090941;23;20365;-77
2023/02/15 06:33:45;;;;;;;3.80;3.60;;;-0.60;99.90;;;;;;6091806;23;20361;-77
2023/02/15 06:36:12;;;;;;;3.30;3.20;;;-0.60;99.90;;;;;;6092684;23;20385;-77
2023/02/15 06:38:39;;;;;;;4.07;3.88;;;-0.70;99.90;;;;;;6118973;23;20396;-77
2023/02/15 06:41:06;;;;;;;4.00;3.80;;;-0.70;99.90;;;;;;6091086;23;21281;-76
2023/02/15 06:43:34;;;;;;;4.70;4.40;;;-0.60;99.90;;;;;;6117042;23;20409;-77
2023/02/15 06:46:01;;;;;;;4.60;4.40;;;-0.60;99.90;;;;;;6063510;23;20379;-77
2023/02/15 06:48:28;;;;;;;4.60;4.40;;;-0.50;99.90;;;;;;6084187;23;20710;-77
2023/02/15 06:50:56;;;;;;;4.55;4.35;;;-0.40;99.90;;;;;;6090312;23;20381;-77
2023/02/15 06:53:23;;;;;;;4.60;4.40;;;-0.40;99.90;;;;;;6093468;23;20421;-76
2023/02/15 06:55:50;;;;;;;3.60;3.40;;;-0.30;99.90;;;;;;6093368;23;20389;-78
2023/02/15 06:58:17;;;;;;;3.72;3.53;;;-0.30;99.90;;;;;;6091746;23;20373;-77
2023/02/15 07:00:44;;;;;;;3.78;3.58;;;-0.50;99.90;;;;;;6093191;23;20365;-78
2023/02/15 07:03:14;;;;;;;3.75;3.55;;;-0.50;99.90;;;;;;6091725;23;20398;-77
2023/02/15 07:05:41;;;;;;;3.63;3.33;;;-0.50;99.90;;;;;;6093992;23;20410;-77
2023/02/15 07:08:08;;;;;;;4.28;4.07;;;-0.50;99.90;;;;;;6090702;23;20696;-77
2023/02/15 07:10:35;;;;;;;4.13;3.92;;;-0.50;99.90;;;;;;6092282;23;20369;-77
2023/02/15 07:13:02;;;;;;;4.00;3.80;;;-0.50;99.90;;;;;;6091225;23;20440;-77
2023/02/15 07:15:29;;;;;;;4.22;4.03;;;-0.40;99.90;;;;;;6092538;23;20370;-77
2023/02/15 07:17:58;;;;;;;4.47;4.22;;;-0.40;99.90;;;;;;6092045;23;20377;-77
2023/02/15 07:20:26;;;;;;;4.85;4.55;;;-0.30;99.90;;;;;;6091298;23;20376;-77
2023/02/15 07:22:52;;;;;;;4.13;3.92;;;-0.20;99.90;;;;;;6115743;23;20479;-77
2023/02/15 07:25:20;;;;;;;5.15;4.85;;;-0.10;99.90;;;;;;6089177;23;20379;-77
2023/02/15 07:27:47;;;;;;;5.03;4.72;;;0.00;99.90;;;;;;6081348;23;20801;-78
2023/02/15 07:30:16;;;;;;;5.10;4.80;;;0.10;99.90;;;;;;6089208;23;20377;-77
2023/02/15 07:35:32;;;;;;;3.97;3.78;;;0.50;99.90;;;;;;6114049;23;20369;-77
2023/02/15 07:37:59;;;;;;;3.75;3.55;;;0.70;99.90;;;;;;6089995;23;20357;-77
2023/02/15 07:40:26;;;;;;;3.60;3.40;;;0.90;99.90;;;;;;6089488;23;20686;-77
2023/02/15 07:42:57;;;;;;;4.47;4.27;;;1.10;99.90;;;;;;6090338;23;20390;-77
2023/02/15 07:45:24;;;;;;;4.07;3.87;;;1.40;99.90;;;;;;6089357;23;20392;-77
2023/02/15 07:47:51;;;;;;;3.70;3.50;;;1.70;99.90;;;;;;6115200;23;20417;-77
2023/02/15 07:50:18;;;;;;;3.65;3.47;;;2.10;99.90;;;;;;6106631;23;20378;-77
2023/02/15 07:52:46;;;;;;;3.78;3.58;;;2.50;99.90;;;;;;6083455;23;20373;-77
2023/02/15 07:55:13;;;;;;;4.55;4.35;;;2.80;99.90;;;;;;6085631;23;20420;-76
2023/02/15 07:57:45;;;;;;;3.75;3.55;;;3.20;99.90;;;;;;6089923;23;20377;-77
2023/02/15 08:00:14;;;;;;;3.47;3.27;;;3.80;96.10;;;;;;6089580;23;20503;-77
2023/02/15 08:02:41;;;;;;;3.00;2.80;;;4.00;96.20;;;;;;6116746;23;20450;-78
2023/02/15 08:05:08;;;;;;;2.90;2.80;;;4.40;95.80;;;;;;6091838;23;20383;-77
2023/02/15 08:07:35;;;;;;;3.30;3.10;;;4.60;95.40;;;;;;6090824;23;20411;-77
2023/02/15 08:10:02;;;;;;;2.80;2.70;;;4.80;97.70;;;;;;6055522;23;20390;-77
2023/02/15 08:12:30;;;;;;;3.03;2.93;;;5.00;97.50;;;;;;6089446;23;20823;-78
2023/02/15 08:14:57;;;;;;;3.05;2.95;;;5.30;97.60;;;;;;6092374;23;20373;-77
2023/02/15 08:17:24;;;;;;;3.25;3.05;;;5.60;96.20;;;;;;6114534;23;20381;-77
2023/02/15 08:19:51;;;;;;;2.83;2.72;;;5.90;95.40;;;;;;6087363;23;20385;-77
2023/02/15 08:22:18;;;;;;;3.15;2.85;;;6.10;94.10;;;;;;6082595;23;20418;-77
2023/02/15 08:24:46;;;;;;;2.85;2.75;;;6.40;90.70;;;;;;6066523;23;20374;-77
2023/02/15 08:27:13;;;;;;;2.90;2.80;;;6.70;91.00;;;;;;6092080;23;20381;-77
2023/02/15 08:29:41;;;;;;;3.30;3.10;;;7.00;87.40;;;;;;6115481;23;20365;-77
2023/02/15 08:32:11;;;;;;;2.70;2.60;;;7.30;83.80;;;;;;6090833;23;20404;-77
2023/02/15 08:34:40;;;;;;;2.93;2.80;;;7.60;81.10;;;;;;6114265;23;20372;-78
2023/02/15 08:37:07;;;;;;;3.03;2.90;;;7.90;74.90;;;;;;6082261;23;20382;-78
2023/02/15 08:39:34;;;;;;;2.57;2.47;;;8.10;72.20;;;;;;6068671;23;20878;-77
2023/02/15 08:42:02;;;;;;;2.70;2.60;;;8.30;71.40;;;;;;6069993;23;20413;-77
2023/02/15 08:44:29;;;;;;;2.55;2.45;;;8.40;68.30;;;;;;6054665;23;20382;-78
2023/02/15 08:47:02;;;;;;;2.70;2.60;;;8.70;67.40;;;;;;6085023;23;20409;-78
2023/02/15 08:49:29;;;;;;;5.55;5.25;;;9.00;63.80;;;;;;6063298;23;20382;-78
2023/02/15 08:51:57;;;;;;;6.07;5.75;;;9.30;60.10;;;;;;6047217;23;20394;-77
2023/02/15 08:54:24;;;;;;;7.13;6.73;;;9.60;59.40;;;;;;6072491;23;20381;-77
2023/02/15 08:56:52;;;;;;;5.43;5.13;;;9.90;57.30;;;;;;6078552;23;20381;-77
2023/02/15 08:59:23;;;;;;;3.63;3.42;;;10.10;58.30;;;;;;6079861;23;20380;-78
2023/02/15 09:01:51;;;;;;;3.33;3.13;;;10.30;57.20;;;;;;6084161;23;20449;-78
2023/02/15 09:04:19;;;;;;;2.50;2.40;;;10.30;56.20;;;;;;6080856;23;20387;-77
2023/02/15 09:06:48;;;;;;;2.83;2.63;;;10.40;56.80;;;;;;6083805;23;20392;-78
2023/02/15 09:09:16;;;;;;;2.13;1.93;;;10.50;57.30;;;;;;6083955;23;20407;-78
2023/02/15 09:11:46;;;;;;;2.30;2.15;;;10.70;55.80;;;;;;6074027;23;20381;-75
2023/02/15 09:14:19;;;;;;;2.35;2.15;;;10.70;55.10;;;;;;6062335;23;20377;-78
2023/02/15 09:16:49;;;;;;;2.10;2.00;;;11.00;56.00;;;;;;6042900;23;20495;-77
2023/02/15 09:19:17;;;;;;;2.30;2.20;;;11.00;54.10;;;;;;6063966;23;20384;-76
2023/02/15 09:21:45;;;;;;;1.80;1.70;;;11.20;54.30;;;;;;6101833;23;20389;-77
2023/02/15 09:24:14;;;;;;;2.20;2.10;;;11.30;54.60;;;;;;6067950;23;20380;-77
2023/02/15 09:26:46;;;;;;;2.40;2.20;;;11.40;52.00;;;;;;6076247;23;20380;-76
2023/02/15 09:29:15;;;;;;;1.88;1.77;;;11.60;51.30;;;;;;6077025;23;20456;-77
2023/02/15 09:31:48;;;;;;;2.00;1.90;;;11.70;51.20;;;;;;6074325;23;20691;-76
2023/02/15 09:34:18;;;;;;;2.20;2.10;;;11.90;51.60;;;;;;6077033;23;20396;-77
2023/02/15 09:36:47;;;;;;;1.50;1.50;;;12.00;50.40;;;;;;6108480;23;20401;-76
2023/02/15 09:39:16;;;;;;;2.20;2.10;;;12.20;49.30;;;;;;6084834;23;20898;-77
2023/02/15 09:41:55;;;;;;;2.00;1.90;;;12.20;47.50;;;;;;6083389;23;20365;-77
2023/02/15 09:44:31;;;;;;;2.00;1.90;;;12.30;46.30;;;;;;6085453;23;20497;-77
2023/02/15 09:47:29;;;;;;;2.22;2.13;;;12.40;47.70;;;;;;6083941;23;20388;-77
2023/02/15 09:50:00;;;;;;;1.90;1.80;;;12.50;46.30;;;;;;6082164;23;20381;-77
2023/02/15 09:52:48;;;;;;;2.03;1.93;;;12.70;46.90;;;;;;6111142;23;20381;-77
2023/02/15 09:55:27;;;;;;;1.70;1.60;;;12.70;44.80;;;;;;6080428;23;20449;-77
2023/02/15 09:58:26;;;;;;;1.60;1.50;;;12.90;44.90;;;;;;6079901;23;20382;-77
2023/02/15 10:01:15;;;;;;;1.80;1.70;;;13.20;44.80;;;;;;6080253;23;20381;-78
2023/02/15 10:04:06;;;;;;;1.60;1.50;;;13.30;44.00;;;;;;6108628;23;20891;-77
2023/02/15 10:06:42;;;;;;;1.50;1.40;;;13.50;43.00;;;;;;6088558;23;20444;-77
2023/02/15 10:09:48;;;;;;;1.60;1.50;;;13.70;44.10;;;;;;6086300;23;20369;-77
2023/02/15 10:12:18;;;;;;;1.55;1.45;;;13.80;42.60;;;;;;6111952;23;20432;-77
2023/02/15 10:15:12;;;;;;;1.60;1.50;;;14.00;42.30;;;;;;6088983;23;20381;-76
2023/02/15 10:18:09;;;;;;;1.25;1.15;;;14.10;40.60;;;;;;6082662;23;20370;-77
2023/02/15 10:20:48;;;;;;;1.77;1.67;;;14.20;42.10;;;;;;6093000;23;20397;-77
2023/02/15 10:23:44;;;;;;;1.55;1.45;;;14.30;41.00;;;;;;6086834;23;20393;-78
2023/02/15 10:26:42;;;;;;;2.15;1.90;;;14.40;40.10;;;;;;6076301;23;20389;-77
2023/02/15 10:29:31;;;;;;;2.30;2.10;;;14.50;41.00;;;;;;6089654;23;20380;-77
2023/02/15 10:32:21;;;;;;;1.90;1.80;;;14.60;41.30;;;;;;6090155;23;20369;-77
2023/02/15 10:35:03;;;;;;;2.70;1.90;;;14.70;40.80;;;;;;6115687;23;20451;-78
2023/02/15 10:38:10;;;;;;;1.67;1.57;;;14.90;40.10;;;;;;6088978;23;20377;-76
2023/02/15 10:41:05;;;;;;;1.80;1.70;;;15.00;39.10;;;;;;6077165;23;20370;-78
2023/02/15 10:44:11;;;;;;;1.80;1.60;;;15.20;39.40;;;;;;6093229;23;20397;-77
2023/02/15 10:46:48;;;;;;;1.57;1.47;;;15.30;39.10;;;;;;6069122;23;20366;-78
2023/02/15 10:49:38;;;;;;;1.80;1.70;;;15.30;38.00;;;;;;6091309;23;20382;-78
2023/02/15 10:52:19;;;;;;;3.20;1.50;;;15.40;37.70;;;;;;6091389;23;20373;-77
2023/02/15 10:55:19;;;;;;;1.40;1.30;;;15.30;36.90;;;;;;6089433;23;20774;-77
2023/02/15 10:58:02;;;;;;;1.90;1.80;;;15.50;38.90;;;;;;6087900;23;20381;-77
2023/02/15 11:00:45;;;;;;;1.73;1.63;;;15.50;39.20;;;;;;6087913;23;20390;-77
2023/02/15 11:03:37;;;;;;;1.60;1.50;;;15.40;38.30;;;;;;6088921;23;20389;-77
2023/02/15 11:06:06;;;;;;;2.97;2.78;;;15.20;38.60;;;;;;6092796;23;20397;-78
2023/02/15 11:08:39;;;;;;;3.15;2.95;;;15.30;40.40;;;;;;6095371;23;20358;-77
2023/02/15 11:11:31;;;;;;;2.88;2.67;;;15.40;41.30;;;;;;6093250;23;20349;-78
2023/02/15 11:14:05;;;;;;;2.10;2.00;;;15.60;40.20;;;;;;6082808;23;20869;-78
2023/02/15 11:16:40;;;;;;;1.90;1.80;;;15.70;38.20;;;;;;6116128;23;20382;-78
2023/02/15 11:19:26;;;;;;;2.50;2.30;;;15.90;38.60;;;;;;6088008;23;20385;-77
2023/02/15 11:21:58;;;;;;;2.08;1.98;;;16.10;39.20;;;;;;6115952;23;20703;-78
2023/02/15 11:24:29;;;;;;;2.37;2.20;;;15.80;37.20;;;;;;6093172;23;20374;-77
2023/02/15 11:27:05;;;;;;;2.75;2.60;;;15.90;39.50;;;;;;6117158;23;20357;-77
2023/02/15 11:29:37;;;;;;;2.30;2.20;;;16.10;39.00;;;;;;6093961;23;20354;-78
2023/02/15 11:32:40;;;;;;;2.30;2.20;;;16.20;38.10;;;;;;6093434;23;20381;-78
2023/02/15 11:35:34;;;;;;;2.10;2.00;;;16.30;38.40;;;;;;6005692;23;20409;-77
2023/02/15 11:38:28;;;;;;;2.00;1.90;;;16.60;38.00;;;;;;6115386;23;20377;-78
2023/02/15 11:41:03;;;;;;;1.90;1.80;;;16.70;36.80;;;;;;6091883;23;20859;-77
2023/02/15 11:43:43;;;;;;;2.00;1.90;;;16.80;36.30;;;;;;6092981;23;20446;-77
2023/02/15 11:46:12;;;;;;;1.70;1.60;;;17.00;36.20;;;;;;6092348;23;20389;-77
2023/02/15 11:48:41;;;;;;;2.30;2.13;;;17.20;35.60;;;;;;6118930;23;20398;-78
2023/02/15 11:51:15;;;;;;;2.10;2.00;;;17.20;35.20;;;;;;6092217;23;20408;-78
2023/02/15 11:53:45;;;;;;;1.80;1.70;;;17.10;34.90;;;;;;6091225;23;20437;-77
2023/02/15 11:56:18;;;;;;;2.22;2.03;;;17.00;34.90;;;;;;6034016;23;20383;-77
2023/02/15 11:58:51;;;;;;;1.77;1.67;;;17.10;35.30;;;;;;6083165;23;20453;-77
2023/02/15 12:01:40;;;;;;;1.98;1.88;;;17.40;35.40;;;;;;6089004;23;20373;-77
2023/02/15 12:04:32;;;;;;;1.77;1.67;;;17.50;34.40;;;;;;6088002;23;20392;-77
2023/02/15 12:07:12;;;;;;;1.60;1.50;;;17.40;34.20;;;;;;6112079;23;20389;-77
2023/02/15 12:10:11;;;;;;;2.00;1.90;;;17.60;34.40;;;;;;6089666;23;20781;-78
2023/02/15 12:12:38;;;;;;;1.83;1.73;;;17.50;32.80;;;;;;6088170;23;20369;-78
2023/02/15 12:15:11;;;;;;;1.50;1.40;;;17.20;33.50;;;;;;6077713;23;20457;-77
2023/02/15 12:17:52;;;;;;;2.00;1.90;;;17.30;34.60;;;;;;6089221;23;20389;-78
2023/02/15 12:20:19;;;;;;;2.30;2.20;;;17.50;34.60;;;;;;6090818;23;20364;-77
2023/02/15 12:23:01;;;;;;;2.00;1.90;;;17.50;34.70;;;;;;6114149;23;20401;-78
2023/02/15 12:25:52;;;;;;;2.20;2.00;;;17.60;34.10;;;;;;6090270;23;20384;-77
2023/02/15 12:28:34;;;;;;;2.60;2.40;;;17.90;35.60;;;;;;6090229;23;20406;-78
2023/02/15 12:31:20;;;;;;;1.92;1.65;;;18.00;34.40;;;;;;6115006;23;20861;-79
2023/02/15 12:33:50;;;;;;;2.08;1.98;;;17.80;32.40;;;;;;6090983;23;20698;-78
2023/02/15 12:36:21;;;;;;;2.50;2.30;;;18.10;33.70;;;;;;6091579;23;20413;-77
2023/02/15 12:39:07;;;;;;;2.67;2.47;;;18.10;34.30;;;;;;6092273;23;20401;-77
2023/02/15 12:41:34;;;;;;;2.75;2.55;;;18.30;33.90;;;;;;6095431;23;20390;-78
2023/02/15 12:44:18;;;;;;;2.13;2.03;;;18.40;34.30;;;;;;6089541;23;20354;-78
2023/02/15 12:46:58;;;;;;;2.50;2.40;;;18.60;34.00;;;;;;6091156;23;20369;-78
2023/02/15 12:49:26;;;;;;;2.50;2.35;;;18.70;33.90;;;;;;6092517;23;20411;-77
2023/02/15 12:51:59;;;;;;;4.15;3.95;;;18.10;33.10;;;;;;6091403;23;20392;-78
2023/02/15 12:54:31;;;;;;;3.05;2.85;;;18.30;34.20;;;;;;6119338;23;20378;-77
2023/02/15 12:56:59;;;;;;;2.63;2.47;;;18.10;32.90;;;;;;6093234;23;20377;-78
2023/02/15 12:59:26;;;;;;;2.45;2.35;;;17.90;33.70;;;;;;6095380;23;20856;-79
2023/02/15 13:01:53;;;;;;;2.67;2.57;;;18.10;33.40;;;;;;6094416;23;20373;-77
2023/02/15 13:04:29;;;;;;;2.50;2.30;;;18.30;33.90;;;;;;6096068;23;20384;-77
2023/02/15 13:06:59;;;;;;;2.70;2.53;;;18.10;33.70;;;;;;6095191;23;20389;-77
2023/02/15 13:09:38;;;;;;;3.63;3.42;;;18.00;33.60;;;;;;6094850;23;20397;-78
2023/02/15 13:12:11;;;;;;;2.63;2.42;;;18.30;34.40;;;;;;6095537;23;20360;-77
2023/02/15 13:14:45;;;;;;;2.33;2.22;;;18.70;34.70;;;;;;6095026;23;20389;-78
2023/02/15 13:17:15;;;;;;;3.55;3.35;;;19.20;33.20;;;;;;6093933;23;20384;-78
2023/02/15 13:19:50;;;;;;;4.00;3.80;;;19.20;32.20;;;;;;6095212;23;20366;-78
2023/02/15 13:22:31;;;;;;;3.10;2.90;;;18.80;32.20;;;;;;6118889;23;20374;-78
2023/02/15 13:25:11;;;;;;;2.60;2.50;;;18.80;32.50;;;;;;6072945;23;20428;-78
2023/02/15 13:27:41;;;;;;;3.92;3.65;;;18.60;33.30;;;;;;6095762;23;20370;-78
2023/02/15 13:30:28;;;;;;;3.20;2.90;;;18.80;32.90;;;;;;6119184;23;20353;-78
2023/02/15 13:33:00;;;;;;;2.85;2.72;;;18.80;32.50;;;;;;6093653;23;20388;-78
2023/02/15 13:35:36;;;;;;;2.47;2.38;;;18.50;32.80;;;;;;6096034;23;20389;-78
2023/02/15 13:38:19;;;;;;;2.40;2.20;;;18.80;33.60;;;;;;6094662;23;20365;-78
2023/02/15 13:41:01;;;;;;;3.25;2.35;;;19.00;33.00;;;;;;6120719;23;20397;-79
2023/02/15 13:44:07;;;;;;;4.80;4.50;;;19.10;32.30;;;;;;6094612;23;20365;-79
2023/02/15 13:46:55;;;;;;;4.60;4.30;;;19.10;32.80;;;;;;6094713;23;20354;-78
2023/02/15 13:49:31;;;;;;;2.78;2.58;;;19.10;33.10;;;;;;6094694;23;20397;-79
2023/02/15 13:52:28;;;;;;;2.72;2.45;;;19.50;32.00;;;;;;6095551;23;20381;-78
2023/02/15 13:55:14;;;;;;;2.83;2.63;;;19.80;32.20;;;;;;6087088;23;20405;-77